Time;durP1;ratioP1;P1;durP2;ratioP2;P2;SDS_P1;SDS_P2;PMS_P1;PMS_P2;Temp;Humidity;BMP_temperature;BMP_pressure;BME280_temperature;BME280_humidity;BME280_pressure;Samples;Min_cycle;Max_cycle;Signal;HPM_P1;HPM_P2
2020/12/26 00:00:42;;;;;;;14.80;11.95;;;;;;;;;;5083810;28;20282;-75
2020/12/26 00:03:08;;;;;;;13.32;11.93;;;;;;;;;;5078768;28;20259;-74
2020/12/26 00:05:35;;;;;;;18.58;13.55;;;;;;;;;;5080635;28;20672;-73
2020/12/26 00:08:01;;;;;;;17.88;13.88;;;;;;;;;;5083977;28;20259;-72
2020/12/26 00:10:27;;;;;;;21.77;14.60;;;;;;;;;;5095138;28;20234;-73
2020/12/26 00:12:53;;;;;;;17.45;14.63;;;;;;;;;;5089407;28;20187;-74
2020/12/26 00:15:19;;;;;;;17.42;14.88;;;;;;;;;;5083079;28;20212;-73
2020/12/26 00:17:45;;;;;;;19.35;16.35;;;;;;;;;;5068995;28;20214;-74
2020/12/26 00:20:11;;;;;;;20.65;16.55;;;;;;;;;;5072660;28;20591;-72
2020/12/26 00:22:37;;;;;;;22.52;17.65;;;;;;;;;;5079333;28;20260;-73
2020/12/26 00:25:03;;;;;;;23.20;18.77;;;;;;;;;;5076735;28;20180;-74
2020/12/26 00:27:30;;;;;;;19.30;16.75;;;;;;;;;;5081467;28;20183;-73
2020/12/26 00:29:56;;;;;;;25.10;18.85;;;;;;;;;;5091604;28;20210;-72
2020/12/26 00:32:22;;;;;;;24.50;19.25;;;;;;;;;;5092853;28;20180;-74
2020/12/26 00:34:48;;;;;;;23.65;20.10;;;;;;;;;;5086347;28;20203;-73
2020/12/26 00:37:18;;;;;;;23.42;18.15;;;;;;;;;;5087744;28;20188;-72
2020/12/26 00:39:44;;;;;;;22.67;17.92;;;;;;;;;;5076123;28;20195;-75
2020/12/26 00:42:10;;;;;;;27.73;20.20;;;;;;;;;;5080638;28;20312;-73
2020/12/26 00:44:36;;;;;;;23.73;19.42;;;;;;;;;;5073210;28;20179;-72
2020/12/26 00:47:02;;;;;;;28.13;21.55;;;;;;;;;;5092650;28;20858;-73
2020/12/26 00:49:28;;;;;;;26.58;21.98;;;;;;;;;;5090300;28;21002;-73
2020/12/26 00:51:54;;;;;;;26.05;21.30;;;;;;;;;;5079335;28;20964;-73
2020/12/26 00:54:20;;;;;;;26.73;20.92;;;;;;;;;;5091921;28;20187;-74
2020/12/26 00:56:46;;;;;;;27.63;20.25;;;;;;;;;;5091928;28;20195;-74
2020/12/26 00:59:12;;;;;;;30.15;22.08;;;;;;;;;;5087664;28;20179;-71
2020/12/26 01:01:38;;;;;;;31.98;23.42;;;;;;;;;;5089723;28;20663;-74
2020/12/26 01:04:04;;;;;;;31.20;22.52;;;;;;;;;;5092353;28;20171;-74
2020/12/26 01:06:30;;;;;;;33.42;23.05;;;;;;;;;;5095632;28;20199;-73
2020/12/26 01:08:56;;;;;;;32.20;22.17;;;;;;;;;;5095048;28;20264;-73
2020/12/26 01:11:22;;;;;;;31.25;22.17;;;;;;;;;;5088316;28;20195;-74
2020/12/26 01:13:48;;;;;;;39.92;25.52;;;;;;;;;;5075041;28;20209;-72
2020/12/26 01:16:14;;;;;;;35.85;21.50;;;;;;;;;;5075314;28;20301;-73
2020/12/26 01:18:41;;;;;;;36.35;21.98;;;;;;;;;;5075590;28;20603;-74
2020/12/26 01:21:07;;;;;;;34.90;22.45;;;;;;;;;;5075239;28;20283;-74
2020/12/26 01:23:34;;;;;;;41.17;23.13;;;;;;;;;;5091777;28;20528;-73
2020/12/26 01:26:00;;;;;;;38.22;22.52;;;;;;;;;;5087567;28;20265;-74
2020/12/26 01:28:26;;;;;;;61.55;23.35;;;;;;;;;;5081762;28;20183;-73
2020/12/26 01:30:52;;;;;;;35.40;22.20;;;;;;;;;;5094986;28;20199;-73
2020/12/26 01:33:18;;;;;;;36.67;23.30;;;;;;;;;;5093936;28;20172;-73
2020/12/26 01:35:44;;;;;;;46.63;23.67;;;;;;;;;;5094938;28;20192;-74
2020/12/26 01:38:10;;;;;;;36.33;24.15;;;;;;;;;;5095297;28;20182;-74
2020/12/26 01:40:36;;;;;;;45.10;23.00;;;;;;;;;;5095159;28;20195;-73
2020/12/26 01:43:05;;;;;;;45.03;23.85;;;;;;;;;;5095137;28;20178;-75
2020/12/26 01:45:31;;;;;;;35.58;23.08;;;;;;;;;;5094724;28;20179;-74
2020/12/26 01:47:58;;;;;;;37.78;23.85;;;;;;;;;;5095046;28;20237;-73
2020/12/26 01:50:24;;;;;;;44.85;21.88;;;;;;;;;;5093260;28;20256;-72
2020/12/26 01:52:51;;;;;;;51.65;23.67;;;;;;;;;;5095192;28;20199;-72
2020/12/26 01:55:17;;;;;;;54.47;22.63;;;;;;;;;;5094709;28;20200;-74
2020/12/26 01:57:50;;;;;;;53.63;20.70;;;;;;;;;;5095086;28;20167;-73
2020/12/26 02:00:16;;;;;;;42.28;22.35;;;;;;;;;;5094754;28;20252;-74
2020/12/26 02:02:42;;;;;;;37.13;22.65;;;;;;;;;;5094944;28;20532;-74
2020/12/26 02:05:08;;;;;;;31.92;22.25;;;;;;;;;;5094133;28;20701;-72
2020/12/26 02:07:34;;;;;;;52.17;22.25;;;;;;;;;;5094500;28;20222;-72
2020/12/26 02:10:00;;;;;;;64.32;23.38;;;;;;;;;;5087245;28;20219;-71
2020/12/26 02:12:26;;;;;;;75.88;22.75;;;;;;;;;;5074403;28;20176;-73
2020/12/26 02:14:52;;;;;;;37.53;21.73;;;;;;;;;;5073814;28;20215;-74
2020/12/26 02:17:25;;;;;;;49.17;23.52;;;;;;;;;;5074354;28;20196;-73
2020/12/26 02:19:51;;;;;;;58.58;22.35;;;;;;;;;;5074014;28;20538;-75
2020/12/26 02:22:17;;;;;;;43.10;23.98;;;;;;;;;;5074334;28;20190;-76
2020/12/26 02:24:43;;;;;;;64.70;23.40;;;;;;;;;;5072559;28;20275;-73
2020/12/26 02:27:09;;;;;;;36.42;23.25;;;;;;;;;;5074099;28;20251;-72
2020/12/26 02:29:35;;;;;;;40.35;22.20;;;;;;;;;;5090384;28;20187;-73
2020/12/26 02:32:01;;;;;;;44.75;24.00;;;;;;;;;;5094445;28;20174;-76
2020/12/26 02:34:27;;;;;;;57.42;24.13;;;;;;;;;;5094029;28;20561;-74
2020/12/26 02:36:53;;;;;;;36.33;23.90;;;;;;;;;;5094045;28;20267;-76
2020/12/26 02:39:19;;;;;;;33.00;22.10;;;;;;;;;;5093950;28;20282;-75
2020/12/26 02:41:49;;;;;;;38.53;22.27;;;;;;;;;;5093982;28;20629;-74
2020/12/26 02:44:15;;;;;;;41.53;24.05;;;;;;;;;;5093236;28;20203;-75
2020/12/26 02:46:41;;;;;;;30.45;23.80;;;;;;;;;;5093877;28;20679;-77
2020/12/26 02:49:07;;;;;;;32.17;22.73;;;;;;;;;;5093767;28;20218;-74
2020/12/26 02:51:34;;;;;;;31.70;22.30;;;;;;;;;;5093426;28;20534;-75
2020/12/26 02:54:00;;;;;;;37.15;22.83;;;;;;;;;;5093657;28;20179;-74
2020/12/26 02:56:26;;;;;;;31.48;22.70;;;;;;;;;;5093624;28;20218;-73
2020/12/26 02:58:52;;;;;;;34.30;22.27;;;;;;;;;;5093708;28;20171;-75
2020/12/26 03:01:18;;;;;;;31.55;21.88;;;;;;;;;;5074943;28;20211;-75
2020/12/26 03:03:44;;;;;;;36.03;24.05;;;;;;;;;;5072946;28;20181;-76
2020/12/26 03:06:12;;;;;;;32.53;22.25;;;;;;;;;;5073730;28;20540;-76
2020/12/26 03:08:38;;;;;;;27.98;21.38;;;;;;;;;;5073511;28;20206;-75
2020/12/26 03:11:04;;;;;;;28.90;22.13;;;;;;;;;;5077115;28;20279;-74
2020/12/26 03:13:31;;;;;;;35.97;23.50;;;;;;;;;;5072691;28;20180;-74
2020/12/26 03:15:58;;;;;;;29.98;22.38;;;;;;;;;;5073019;28;20208;-73
2020/12/26 03:18:24;;;;;;;30.13;21.40;;;;;;;;;;5073164;28;20225;-75
2020/12/26 03:20:50;;;;;;;29.38;21.73;;;;;;;;;;5073077;28;20291;-75
2020/12/26 03:23:16;;;;;;;28.95;21.27;;;;;;;;;;5073507;28;20177;-74
2020/12/26 03:25:42;;;;;;;27.63;20.58;;;;;;;;;;5072739;28;20199;-74
2020/12/26 03:28:08;;;;;;;31.67;22.08;;;;;;;;;;5077528;28;20178;-75
2020/12/26 03:30:34;;;;;;;28.35;21.02;;;;;;;;;;5092979;28;20230;-75
2020/12/26 03:33:00;;;;;;;29.17;21.30;;;;;;;;;;5093479;28;20318;-74
2020/12/26 03:35:26;;;;;;;27.35;20.23;;;;;;;;;;5092823;28;20745;-74
2020/12/26 03:37:52;;;;;;;27.85;20.35;;;;;;;;;;5093007;28;20210;-75
2020/12/26 03:40:18;;;;;;;30.67;20.45;;;;;;;;;;5093394;28;20314;-76
2020/12/26 03:42:44;;;;;;;33.00;22.45;;;;;;;;;;5093060;28;20304;-74
2020/12/26 03:45:10;;;;;;;31.50;21.83;;;;;;;;;;5092643;28;20351;-73
2020/12/26 03:47:36;;;;;;;28.75;21.48;;;;;;;;;;5093164;28;20186;-74
2020/12/26 03:50:02;;;;;;;30.10;20.90;;;;;;;;;;5092980;28;20622;-75
2020/12/26 03:52:28;;;;;;;27.83;21.08;;;;;;;;;;5092902;28;20183;-75
2020/12/26 03:54:54;;;;;;;30.02;21.52;;;;;;;;;;5092811;28;20286;-74
2020/12/26 03:57:20;;;;;;;31.08;21.98;;;;;;;;;;5097414;28;20179;-74
2020/12/26 03:59:46;;;;;;;30.70;21.42;;;;;;;;;;5096760;28;20195;-74
2020/12/26 04:02:12;;;;;;;29.73;21.75;;;;;;;;;;5096925;28;20232;-75
2020/12/26 04:04:38;;;;;;;34.30;22.67;;;;;;;;;;5096763;28;20182;-74
2020/12/26 04:07:04;;;;;;;29.65;19.80;;;;;;;;;;5097042;28;20171;-75
2020/12/26 04:09:30;;;;;;;28.58;20.40;;;;;;;;;;5094444;28;20294;-72
2020/12/26 04:11:56;;;;;;;27.33;19.80;;;;;;;;;;5076549;28;20207;-73
2020/12/26 04:14:23;;;;;;;30.15;20.40;;;;;;;;;;5076006;28;20176;-71
2020/12/26 04:16:54;;;;;;;29.20;20.48;;;;;;;;;;5076520;28;20200;-74
2020/12/26 04:19:20;;;;;;;29.48;20.75;;;;;;;;;;5076472;28;20199;-73
2020/12/26 04:21:46;;;;;;;30.17;20.50;;;;;;;;;;5076331;28;20668;-74
2020/12/26 04:24:12;;;;;;;27.75;20.15;;;;;;;;;;5075858;28;20309;-74
2020/12/26 04:26:38;;;;;;;33.17;20.95;;;;;;;;;;5076286;28;20184;-75
2020/12/26 04:29:05;;;;;;;30.77;19.85;;;;;;;;;;5088138;28;20171;-75
2020/12/26 04:31:32;;;;;;;33.00;21.33;;;;;;;;;;5096525;28;20207;-73
2020/12/26 04:33:58;;;;;;;27.38;20.65;;;;;;;;;;5096271;28;20630;-74
2020/12/26 04:36:24;;;;;;;28.60;20.08;;;;;;;;;;5096367;28;20664;-72
2020/12/26 04:38:50;;;;;;;29.52;19.92;;;;;;;;;;5096614;28;20655;-74
2020/12/26 04:41:18;;;;;;;38.00;22.08;;;;;;;;;;5096384;28;20197;-73
2020/12/26 04:43:44;;;;;;;31.02;19.30;;;;;;;;;;5095822;28;20182;-73
2020/12/26 04:46:17;;;;;;;35.83;20.27;;;;;;;;;;5096407;28;20198;-73
2020/12/26 04:48:54;;;;;;;27.45;19.23;;;;;;;;;;5096353;28;20220;-76
2020/12/26 04:51:20;;;;;;;28.67;18.88;;;;;;;;;;5096048;28;20556;-74
2020/12/26 04:53:49;;;;;;;27.98;18.70;;;;;;;;;;5095686;28;20543;-74
2020/12/26 04:56:20;;;;;;;25.17;19.42;;;;;;;;;;5095725;28;20593;-75
2020/12/26 04:58:48;;;;;;;27.58;19.00;;;;;;;;;;5096022;28;20163;-76
2020/12/26 05:01:15;;;;;;;27.65;17.20;;;;;;;;;;5095777;28;20252;-73
2020/12/26 05:03:41;;;;;;;27.88;19.33;;;;;;;;;;5095503;28;20235;-73
2020/12/26 05:06:08;;;;;;;30.60;19.40;;;;;;;;;;5095574;28;20186;-73
2020/12/26 05:08:34;;;;;;;26.88;18.10;;;;;;;;;;5095555;28;20589;-74
2020/12/26 05:11:01;;;;;;;27.35;18.05;;;;;;;;;;5097824;28;20253;-74
2020/12/26 05:13:27;;;;;;;27.63;19.02;;;;;;;;;;5096097;28;20203;-74
2020/12/26 05:15:54;;;;;;;25.27;18.70;;;;;;;;;;5095459;28;20211;-72
2020/12/26 05:18:20;;;;;;;22.77;17.55;;;;;;;;;;5095355;28;20635;-74
2020/12/26 05:20:46;;;;;;;28.70;18.15;;;;;;;;;;5095466;28;21886;-74
2020/12/26 05:23:19;;;;;;;24.90;18.58;;;;;;;;;;5095757;28;20195;-73
2020/12/26 05:25:45;;;;;;;23.27;18.27;;;;;;;;;;5095203;28;20556;-74
2020/12/26 05:28:12;;;;;;;27.73;18.00;;;;;;;;;;5095534;28;20171;-72
2020/12/26 05:30:39;;;;;;;28.75;18.50;;;;;;;;;;5078030;28;20200;-72
2020/12/26 05:33:05;;;;;;;26.23;18.15;;;;;;;;;;5074979;28;20180;-74
2020/12/26 05:35:35;;;;;;;23.02;18.83;;;;;;;;;;5074806;28;20607;-73
2020/12/26 05:38:13;;;;;;;33.17;19.55;;;;;;;;;;5074817;28;20195;-77
2020/12/26 05:40:43;;;;;;;25.02;18.55;;;;;;;;;;5074593;28;20664;-73
2020/12/26 05:43:10;;;;;;;29.13;17.95;;;;;;;;;;5074963;28;20668;-73
2020/12/26 05:45:39;;;;;;;30.33;19.10;;;;;;;;;;5074578;28;20209;-74
2020/12/26 05:48:09;;;;;;;25.88;19.73;;;;;;;;;;5074536;28;20176;-73
2020/12/26 05:50:35;;;;;;;28.00;18.45;;;;;;;;;;5074415;28;20605;-73
2020/12/26 05:53:02;;;;;;;29.13;18.70;;;;;;;;;;5090027;28;20254;-73
2020/12/26 05:55:36;;;;;;;25.35;19.95;;;;;;;;;;5085626;28;20215;-73
2020/12/26 05:58:02;;;;;;;27.63;20.73;;;;;;;;;;5075071;28;20163;-74
2020/12/26 06:00:36;;;;;;;27.77;18.73;;;;;;;;;;5084742;28;20196;-74
2020/12/26 06:03:20;;;;;;;25.25;18.98;;;;;;;;;;5092396;28;20232;-74
2020/12/26 06:05:47;;;;;;;26.38;18.70;;;;;;;;;;5094490;28;20262;-74
2020/12/26 06:08:14;;;;;;;25.08;18.75;;;;;;;;;;5094562;28;20188;-74
2020/12/26 06:10:41;;;;;;;26.75;19.27;;;;;;;;;;5096785;28;20195;-74
2020/12/26 06:13:08;;;;;;;26.77;18.63;;;;;;;;;;5094450;28;20200;-74
2020/12/26 06:15:35;;;;;;;28.48;19.05;;;;;;;;;;5092766;28;20210;-72
2020/12/26 06:18:04;;;;;;;25.58;18.90;;;;;;;;;;5093707;28;20175;-72
2020/12/26 06:20:30;;;;;;;28.38;18.67;;;;;;;;;;5094849;28;20257;-73
2020/12/26 06:22:56;;;;;;;26.60;19.42;;;;;;;;;;5094361;28;20690;-73
2020/12/26 06:25:23;;;;;;;25.10;19.92;;;;;;;;;;5094080;28;20183;-73
2020/12/26 06:27:52;;;;;;;22.23;18.40;;;;;;;;;;5094197;28;20672;-73
2020/12/26 06:30:21;;;;;;;21.17;17.88;;;;;;;;;;5079323;28;20203;-72
2020/12/26 06:32:49;;;;;;;21.77;18.42;;;;;;;;;;5074005;28;20175;-73
2020/12/26 06:35:15;;;;;;;20.75;17.20;;;;;;;;;;5073345;28;20208;-73
2020/12/26 06:37:41;;;;;;;22.15;17.63;;;;;;;;;;5073804;28;20180;-75
2020/12/26 06:40:27;;;;;;;21.23;16.42;;;;;;;;;;5073706;28;20202;-72
2020/12/26 06:42:54;;;;;;;20.75;15.70;;;;;;;;;;5073474;28;20175;-72
2020/12/26 06:45:32;;;;;;;22.58;16.25;;;;;;;;;;5073213;28;20204;-75
2020/12/26 06:47:58;;;;;;;21.55;15.95;;;;;;;;;;5073827;28;20180;-74
2020/12/26 06:50:25;;;;;;;21.35;15.02;;;;;;;;;;5073254;28;20196;-73
2020/12/26 06:52:52;;;;;;;18.75;15.65;;;;;;;;;;5087870;28;20207;-73
2020/12/26 06:55:39;;;;;;;20.77;16.08;;;;;;;;;;5093227;28;20199;-73
2020/12/26 06:58:06;;;;;;;20.80;14.43;;;;;;;;;;5093576;28;20191;-74
2020/12/26 07:00:32;;;;;;;16.83;14.93;;;;;;;;;;5082040;28;20238;-75
2020/12/26 07:03:17;;;;;;;20.35;14.85;;;;;;;;;;5073181;28;20176;-75
2020/12/26 07:05:43;;;;;;;19.48;13.75;;;;;;;;;;5073211;28;20180;-74
2020/12/26 07:08:20;;;;;;;20.02;13.60;;;;;;;;;;5073279;28;20680;-75
2020/12/26 07:10:46;;;;;;;19.27;14.23;;;;;;;;;;5092293;28;20199;-72
2020/12/26 07:13:12;;;;;;;19.27;14.55;;;;;;;;;;5093599;28;20179;-74
2020/12/26 07:15:38;;;;;;;19.73;14.70;;;;;;;;;;5092762;28;20199;-74
2020/12/26 07:18:22;;;;;;;14.73;13.20;;;;;;;;;;5092152;28;20175;-73
2020/12/26 07:20:49;;;;;;;17.73;13.35;;;;;;;;;;5093570;28;20195;-74
2020/12/26 07:23:16;;;;;;;14.50;12.75;;;;;;;;;;5093350;28;20178;-75
2020/12/26 07:25:42;;;;;;;15.57;12.65;;;;;;;;;;5092973;28;20180;-73
2020/12/26 07:28:08;;;;;;;14.85;12.27;;;;;;;;;;5093511;28;20176;-75
2020/12/26 07:30:36;;;;;;;17.38;11.70;;;;;;;;;;5075981;28;20208;-73
2020/12/26 07:33:02;;;;;;;13.70;11.73;;;;;;;;;;5073030;28;20221;-74
2020/12/26 07:35:32;;;;;;;16.98;11.20;;;;;;;;;;5072752;28;20696;-74
2020/12/26 07:37:58;;;;;;;16.40;11.57;;;;;;;;;;5073135;28;20171;-73
2020/12/26 07:40:29;;;;;;;14.85;11.30;;;;;;;;;;5072698;28;20188;-73
2020/12/26 07:42:56;;;;;;;19.63;11.98;;;;;;;;;;5071627;28;20176;-73
2020/12/26 07:45:26;;;;;;;14.55;11.70;;;;;;;;;;5072463;28;20695;-73
2020/12/26 07:47:53;;;;;;;11.60;10.40;;;;;;;;;;5073238;28;20538;-73
2020/12/26 07:50:20;;;;;;;11.93;10.50;;;;;;;;;;5072714;28;20207;-73
2020/12/26 07:52:47;;;;;;;11.73;10.20;;;;;;;;;;5086383;28;20211;-72
2020/12/26 07:55:13;;;;;;;12.15;10.05;;;;;;;;;;5092658;28;20206;-73
2020/12/26 07:57:39;;;;;;;11.73;8.65;;;;;;;;;;5092858;28;20172;-73
2020/12/26 08:00:05;;;;;;;13.40;10.43;;;;;;;;;;5086084;28;20545;-74
2020/12/26 08:02:32;;;;;;;11.95;9.52;;;;;;;;;;5072717;28;20180;-74
2020/12/26 08:04:58;;;;;;;11.93;9.80;;;;;;;;;;5072303;28;20176;-74
2020/12/26 08:07:24;;;;;;;13.75;9.18;;;;;;;;;;5072808;28;20178;-74
2020/12/26 08:09:54;;;;;;;15.38;9.40;;;;;;;;;;5075571;28;20531;-73
2020/12/26 08:12:21;;;;;;;12.48;9.23;;;;;;;;;;5072679;28;20259;-73
2020/12/26 08:14:56;;;;;;;9.82;8.40;;;;;;;;;;5072410;28;20633;-73
2020/12/26 08:17:22;;;;;;;11.60;8.63;;;;;;;;;;5072844;28;20262;-74
2020/12/26 08:19:49;;;;;;;11.35;9.23;;;;;;;;;;5072530;28;20203;-73
2020/12/26 08:22:15;;;;;;;11.63;9.02;;;;;;;;;;5072437;28;20702;-72
2020/12/26 08:24:41;;;;;;;11.40;8.52;;;;;;;;;;5073395;28;20173;-73
2020/12/26 08:27:07;;;;;;;11.57;8.50;;;;;;;;;;5089966;28;20186;-71
2020/12/26 08:29:33;;;;;;;8.52;7.57;;;;;;;;;;5088977;28;20200;-74
2020/12/26 08:32:00;;;;;;;12.30;8.23;;;;;;;;;;5092168;28;20172;-74
2020/12/26 08:34:37;;;;;;;10.93;8.25;;;;;;;;;;5092117;28;20175;-73
2020/12/26 08:37:08;;;;;;;9.63;8.48;;;;;;;;;;5092754;28;20183;-73
2020/12/26 08:39:35;;;;;;;9.98;7.03;;;;;;;;;;5080978;28;20283;-72
2020/12/26 08:42:01;;;;;;;9.52;8.30;;;;;;;;;;5083750;28;20175;-73
2020/12/26 08:44:30;;;;;;;10.45;7.85;;;;;;;;;;5094246;28;20194;-75
2020/12/26 08:46:56;;;;;;;9.70;7.75;;;;;;;;;;5096165;28;20226;-74
2020/12/26 08:49:22;;;;;;;11.13;7.90;;;;;;;;;;5084994;28;20221;-73
2020/12/26 08:51:48;;;;;;;12.63;7.95;;;;;;;;;;5078651;28;20179;-73
2020/12/26 08:54:18;;;;;;;8.82;7.93;;;;;;;;;;5077664;28;20324;-73
2020/12/26 08:56:44;;;;;;;17.58;7.25;;;;;;;;;;5086819;28;20211;-74
2020/12/26 08:59:10;;;;;;;9.93;6.65;;;;;;;;;;5092175;28;20184;-76
2020/12/26 09:01:38;;;;;;;7.72;6.78;;;;;;;;;;5091402;28;20223;-74
2020/12/26 09:04:04;;;;;;;8.20;6.15;;;;;;;;;;5091943;28;20232;-73
2020/12/26 09:06:34;;;;;;;7.93;7.13;;;;;;;;;;5091604;28;20258;-75
2020/12/26 09:09:19;;;;;;;12.00;7.28;;;;;;;;;;5086252;28;20257;-74
2020/12/26 09:11:46;;;;;;;10.40;7.43;;;;;;;;;;5080536;28;20188;-71
2020/12/26 09:14:15;;;;;;;7.97;6.53;;;;;;;;;;5071374;28;20176;-74
2020/12/26 09:16:41;;;;;;;14.15;7.13;;;;;;;;;;5084358;28;20286;-73
2020/12/26 09:19:07;;;;;;;8.63;6.30;;;;;;;;;;5071737;28;20176;-73
2020/12/26 09:21:34;;;;;;;9.57;6.97;;;;;;;;;;5091017;28;20544;-75
2020/12/26 09:24:00;;;;;;;9.25;6.68;;;;;;;;;;5072117;28;20180;-75
2020/12/26 09:26:27;;;;;;;8.10;6.28;;;;;;;;;;5084630;28;20191;-73
2020/12/26 09:28:57;;;;;;;8.77;7.35;;;;;;;;;;5075337;28;20195;-75
2020/12/26 09:31:27;;;;;;;10.15;7.22;;;;;;;;;;5071935;28;20196;-74
2020/12/26 09:33:55;;;;;;;10.63;6.80;;;;;;;;;;5090874;28;20194;-74
2020/12/26 09:36:22;;;;;;;10.15;6.05;;;;;;;;;;5073694;28;20258;-72
2020/12/26 09:38:49;;;;;;;7.28;6.15;;;;;;;;;;5071548;28;20712;-75
2020/12/26 09:41:15;;;;;;;7.75;6.50;;;;;;;;;;5082099;28;20212;-75
2020/12/26 09:43:41;;;;;;;9.43;7.35;;;;;;;;;;5078746;28;20175;-71
2020/12/26 09:46:07;;;;;;;9.43;6.90;;;;;;;;;;5091442;28;20182;-74
2020/12/26 09:48:33;;;;;;;9.82;7.03;;;;;;;;;;5091454;28;20175;-73
2020/12/26 09:50:59;;;;;;;14.38;7.22;;;;;;;;;;5084641;28;20911;-74
2020/12/26 09:53:26;;;;;;;7.68;6.28;;;;;;;;;;5079030;28;20180;-74
2020/12/26 09:55:52;;;;;;;10.52;6.40;;;;;;;;;;5071266;28;20200;-73
2020/12/26 09:58:18;;;;;;;10.80;6.07;;;;;;;;;;5080040;28;20180;-73
2020/12/26 10:00:44;;;;;;;8.15;6.45;;;;;;;;;;5070815;28;20273;-75
2020/12/26 10:03:10;;;;;;;7.15;5.28;;;;;;;;;;5078852;28;20191;-72
2020/12/26 10:05:36;;;;;;;10.02;6.32;;;;;;;;;;5070461;28;20180;-73
2020/12/26 10:08:02;;;;;;;7.13;5.30;;;;;;;;;;5077196;28;20669;-74
2020/12/26 10:10:28;;;;;;;6.68;5.80;;;;;;;;;;5093809;28;20209;-73
2020/12/26 10:12:54;;;;;;;14.18;5.80;;;;;;;;;;5079872;28;20211;-72
2020/12/26 10:15:20;;;;;;;6.32;5.75;;;;;;;;;;5075234;28;20249;-76
2020/12/26 10:17:47;;;;;;;8.27;5.43;;;;;;;;;;5090928;28;20183;-75
2020/12/26 10:20:13;;;;;;;8.32;6.07;;;;;;;;;;5089478;28;20200;-75
2020/12/26 10:22:38;;;;;;;9.65;5.90;;;;;;;;;;5079169;28;20176;-74
2020/12/26 10:25:05;;;;;;;5.38;4.80;;;;;;;;;;5072524;28;20183;-72
2020/12/26 10:27:31;;;;;;;6.80;6.05;;;;;;;;;;5074970;28;20210;-72
2020/12/26 10:29:57;;;;;;;11.02;6.88;;;;;;;;;;5076927;28;20207;-73
2020/12/26 10:32:23;;;;;;;11.55;6.05;;;;;;;;;;5069691;28;20180;-72
2020/12/26 10:34:49;;;;;;;8.93;6.22;;;;;;;;;;5083143;28;20513;-74
2020/12/26 10:37:16;;;;;;;7.30;6.05;;;;;;;;;;5090004;28;20182;-72
2020/12/26 10:39:42;;;;;;;9.52;6.80;;;;;;;;;;5090193;28;20249;-74
2020/12/26 10:42:09;;;;;;;9.20;5.70;;;;;;;;;;5076842;28;20186;-73
2020/12/26 10:44:35;;;;;;;7.72;6.80;;;;;;;;;;5081104;28;20187;-74
2020/12/26 10:47:01;;;;;;;9.88;6.00;;;;;;;;;;5076589;28;20187;-75
2020/12/26 10:49:27;;;;;;;10.95;7.25;;;;;;;;;;5089744;28;20207;-73
2020/12/26 10:51:53;;;;;;;9.25;6.15;;;;;;;;;;5076503;28;20303;-75
2020/12/26 10:54:19;;;;;;;8.93;5.93;;;;;;;;;;5089425;28;20211;-73
2020/12/26 10:56:47;;;;;;;6.72;6.05;;;;;;;;;;5069689;28;20199;-73
2020/12/26 10:59:13;;;;;;;9.25;6.07;;;;;;;;;;5076735;28;20214;-73
2020/12/26 11:01:40;;;;;;;13.02;7.40;;;;;;;;;;5069799;28;20188;-73
2020/12/26 11:04:06;;;;;;;7.10;6.00;;;;;;;;;;5074121;28;20180;-74
2020/12/26 11:06:32;;;;;;;9.65;7.28;;;;;;;;;;5068352;28;20184;-74
2020/12/26 11:08:58;;;;;;;10.70;6.60;;;;;;;;;;5072725;28;20195;-74
2020/12/26 11:11:24;;;;;;;8.18;5.97;;;;;;;;;;5069587;28;20210;-74
2020/12/26 11:13:50;;;;;;;7.50;6.10;;;;;;;;;;5071191;28;20188;-76
2020/12/26 11:16:17;;;;;;;11.23;7.35;;;;;;;;;;5089534;28;20199;-75
2020/12/26 11:18:44;;;;;;;9.40;7.28;;;;;;;;;;5089403;28;20262;-74
2020/12/26 11:21:20;;;;;;;7.82;6.95;;;;;;;;;;5083776;28;20289;-73
2020/12/26 11:23:46;;;;;;;8.85;7.80;;;;;;;;;;5071336;28;20266;-75
2020/12/26 11:26:12;;;;;;;10.35;8.35;;;;;;;;;;5075918;28;20195;-73
2020/12/26 11:28:39;;;;;;;8.90;7.03;;;;;;;;;;5086826;28;20580;-74
2020/12/26 11:31:05;;;;;;;10.43;8.77;;;;;;;;;;5072954;28;20199;-73
2020/12/26 11:33:33;;;;;;;11.27;8.93;;;;;;;;;;5076554;28;20187;-72
2020/12/26 11:35:59;;;;;;;12.02;8.30;;;;;;;;;;5082389;28;20206;-74
2020/12/26 11:38:25;;;;;;;11.93;8.60;;;;;;;;;;5085392;28;20177;-73
2020/12/26 11:40:51;;;;;;;12.85;8.73;;;;;;;;;;5088843;28;20195;-74
2020/12/26 11:43:17;;;;;;;10.15;8.60;;;;;;;;;;5089053;28;20214;-74
2020/12/26 11:45:43;;;;;;;16.42;9.32;;;;;;;;;;5080926;28;20541;-74
2020/12/26 11:48:10;;;;;;;11.65;10.32;;;;;;;;;;5088636;28;20236;-73
2020/12/26 11:50:36;;;;;;;19.40;9.77;;;;;;;;;;5085676;28;20213;-73
2020/12/26 11:53:02;;;;;;;14.25;10.23;;;;;;;;;;5083001;28;20176;-73
2020/12/26 11:55:28;;;;;;;10.85;9.55;;;;;;;;;;5086307;28;20215;-74
2020/12/26 11:57:54;;;;;;;12.55;9.20;;;;;;;;;;5089265;28;20179;-73
2020/12/26 12:00:21;;;;;;;14.30;9.95;;;;;;;;;;5088997;28;20207;-73
2020/12/26 12:02:47;;;;;;;12.68;10.95;;;;;;;;;;5089320;28;20656;-72
2020/12/26 12:05:13;;;;;;;11.93;9.52;;;;;;;;;;5074355;28;20184;-72
2020/12/26 12:07:39;;;;;;;12.18;10.27;;;;;;;;;;5068812;28;20199;-73
2020/12/26 12:10:05;;;;;;;12.00;9.55;;;;;;;;;;5093957;28;20202;-72
2020/12/26 12:12:31;;;;;;;11.48;10.27;;;;;;;;;;5068791;28;20184;-74
2020/12/26 12:14:57;;;;;;;11.25;10.05;;;;;;;;;;5081946;28;20183;-73
2020/12/26 12:17:23;;;;;;;11.85;10.15;;;;;;;;;;5075918;28;20176;-73
2020/12/26 12:19:49;;;;;;;12.32;10.63;;;;;;;;;;5077275;28;20556;-72
2020/12/26 12:22:15;;;;;;;14.85;11.18;;;;;;;;;;5075375;28;20261;-73
2020/12/26 12:24:41;;;;;;;14.88;10.32;;;;;;;;;;5083822;28;20179;-73
2020/12/26 12:27:07;;;;;;;10.98;9.27;;;;;;;;;;5089611;28;20187;-72
2020/12/26 12:29:33;;;;;;;12.85;10.88;;;;;;;;;;5092727;28;20260;-73
2020/12/26 12:31:59;;;;;;;12.90;11.13;;;;;;;;;;5084705;28;20671;-73
2020/12/26 12:34:25;;;;;;;16.30;10.82;;;;;;;;;;5078048;28;20188;-74
2020/12/26 12:36:51;;;;;;;15.75;10.77;;;;;;;;;;5075473;28;20692;-74
2020/12/26 12:39:17;;;;;;;13.48;10.65;;;;;;;;;;5089952;28;20182;-73
2020/12/26 12:41:44;;;;;;;13.05;9.80;;;;;;;;;;5092627;28;20310;-72
2020/12/26 12:44:10;;;;;;;11.63;10.43;;;;;;;;;;5092019;28;20237;-75
2020/12/26 12:46:36;;;;;;;11.52;9.95;;;;;;;;;;5075484;28;20549;-73
2020/12/26 12:49:02;;;;;;;14.73;11.00;;;;;;;;;;5078593;28;20184;-74
2020/12/26 12:51:28;;;;;;;13.35;10.45;;;;;;;;;;5079347;28;20203;-74
2020/12/26 12:53:54;;;;;;;15.13;12.10;;;;;;;;;;5079718;28;20195;-74
2020/12/26 12:56:20;;;;;;;12.45;10.10;;;;;;;;;;5072000;28;20283;-75
2020/12/26 12:58:46;;;;;;;16.85;10.25;;;;;;;;;;5089371;28;20183;-72
2020/12/26 13:01:12;;;;;;;15.85;9.55;;;;;;;;;;5092300;28;20602;-74
2020/12/26 13:03:38;;;;;;;10.98;9.88;;;;;;;;;;5077715;28;20574;-74
2020/12/26 13:06:04;;;;;;;12.60;8.90;;;;;;;;;;5076625;28;20656;-75
2020/12/26 13:08:30;;;;;;;12.48;11.25;;;;;;;;;;5091908;28;20537;-72
2020/12/26 13:10:56;;;;;;;14.23;9.80;;;;;;;;;;5092088;28;20344;-75
2020/12/26 13:13:22;;;;;;;13.25;10.57;;;;;;;;;;5081570;28;20195;-73
2020/12/26 13:15:48;;;;;;;11.25;10.15;;;;;;;;;;5091681;28;20672;-73
2020/12/26 13:18:14;;;;;;;17.15;13.57;;;;;;;;;;5091103;28;20197;-75
2020/12/26 13:20:40;;;;;;;12.20;10.82;;;;;;;;;;5079435;28;20227;-74
2020/12/26 13:23:07;;;;;;;13.90;11.50;;;;;;;;;;5080217;28;20207;-72
2020/12/26 13:25:33;;;;;;;11.95;10.73;;;;;;;;;;5074014;28;20271;-73
2020/12/26 13:27:59;;;;;;;12.80;10.55;;;;;;;;;;5078393;28;20186;-73
2020/12/26 13:30:25;;;;;;;12.43;11.10;;;;;;;;;;5074148;28;20208;-75
2020/12/26 13:32:51;;;;;;;11.85;10.65;;;;;;;;;;5076682;28;20183;-74
2020/12/26 13:35:17;;;;;;;13.13;11.75;;;;;;;;;;5074129;28;20576;-75
2020/12/26 13:37:43;;;;;;;12.73;11.30;;;;;;;;;;5075287;28;20285;-73
2020/12/26 13:40:09;;;;;;;12.80;11.02;;;;;;;;;;5082571;28;20282;-74
2020/12/26 13:42:35;;;;;;;12.90;11.10;;;;;;;;;;5073383;28;20184;-75
2020/12/26 13:45:01;;;;;;;11.98;10.77;;;;;;;;;;5086301;28;20183;-74
2020/12/26 13:47:27;;;;;;;13.50;12.10;;;;;;;;;;5080726;28;20274;-73
2020/12/26 13:49:53;;;;;;;12.60;11.30;;;;;;;;;;5072766;28;20207;-74
2020/12/26 13:52:19;;;;;;;12.93;11.63;;;;;;;;;;5076339;28;20188;-74
2020/12/26 13:54:45;;;;;;;13.45;11.75;;;;;;;;;;5077698;28;20216;-73
2020/12/26 13:57:14;;;;;;;15.85;12.70;;;;;;;;;;5084654;28;20218;-74
2020/12/26 13:59:40;;;;;;;16.65;12.93;;;;;;;;;;5091052;28;20191;-73
2020/12/26 14:02:06;;;;;;;14.32;11.50;;;;;;;;;;5090072;28;20711;-76
2020/12/26 14:04:32;;;;;;;13.88;12.48;;;;;;;;;;5090307;28;20183;-75
2020/12/26 14:06:58;;;;;;;14.80;13.25;;;;;;;;;;5078604;28;20220;-74
2020/12/26 14:09:24;;;;;;;14.13;12.68;;;;;;;;;;5078341;28;20240;-74
2020/12/26 14:11:50;;;;;;;16.45;14.75;;;;;;;;;;5078321;28;20188;-74
2020/12/26 14:14:16;;;;;;;15.57;13.48;;;;;;;;;;5070833;28;20249;-75
2020/12/26 14:16:42;;;;;;;19.20;14.05;;;;;;;;;;5070566;28;20286;-74
2020/12/26 14:19:08;;;;;;;15.45;13.65;;;;;;;;;;5082803;28;20173;-74
2020/12/26 14:21:34;;;;;;;21.77;14.38;;;;;;;;;;5070686;28;20210;-75